KMNN/MNN METAR and TAF weather

Enter ICAO airport designator
Station Type Date Time Source
KMNN METAR 2019/05/23 18:53 UTC NOAA

KMNN 231853Z AUTO 28017G24KT 10SM FEW040 FEW048 27/19 A3001 RMK AO2 PK WND 24030/1759 SLP156 T02670189


Station Type Date Time Source
KMNN Decoded METAR 2019/05/23 18:53 UTC NOAA

MARION MUNICIPAL AIRPORT, OH, United States (KMNN) 40-37N 83-04W 301M
May 23, 2019 - 02:53 PM EDT / 2019.05.23 1853 UTC
Wind: from the W (280 degrees) at 20 MPH (17 KT) gusting to 28 MPH (24 KT):0
Visibility: 10 mile(s):0
Sky conditions: mostly clear
Temperature: 80.1 F (26.7 C)
Dew Point: 66.0 F (18.9 C)
Relative Humidity: 62%
Pressure (altimeter): 30.01 in. Hg (1016 hPa)
ob: KMNN 231853Z AUTO 28017G24KT 10SM FEW040 FEW048 27/19 A3001 RMK AO2 PK WND 24030/1759 SLP156 T02670189
cycle: 19

Station Type Date Time Source
KMNN TAF UTC NOAA

Error!

Example: see airport list